Terminal Aerodrome Forecast
Issued by NWS Wilmington, OH

Current Version | Previous Version | Graphics & Text | Print | Product List | Glossary Off
Versions: 1 2 3 4 5 6 7 8 9 10 11 12 13 14 15 16 17 18

868
FTUS41 KILN 092111 AAB
TAFILN
TAF AMD
KILN 092111Z 0921/1018 26011KT P6SM BKN028
     FM092300 27008KT P6SM SCT025 OVC035
     FM101300 25008KT P6SM BKN070=

USA.gov is the U.S. government's official web portal to all federal, state and local government web resources and services.